Aviation Digital Data Service (ADDS)

Output produced by METARs form (0431 UTC 19 August 2019)
found at http://www.aviationweather.gov/metar/data/
 
METAR text: RJNG 190308Z 26005KT 220V290 9999 FEW030 BKN180 BKN250 33/22 Q1009 RMK 1CU030 5AC180 A2981
Conditions at: RJNG (GIFU (JASDF) , JP) observed 0308 UTC 19 August 2019
Temperature: 33.0°C (91°F)
Dewpoint: 22.0°C (72°F) [RH = 53%]
Pressure (altimeter): 29.79 inches Hg (1009.0 mb)
Winds: from the W (260 degrees) at 6 MPH (5 knots; 2.6 m/s)
Visibility: 6 or more miles (10+ km)
Ceiling: 18000 feet AGL
Clouds: few clouds at 3000 feet AGL
broken clouds at 18000 feet AGL
broken clouds at 25000 feet AGL
Weather: no significant weather observed at this time

METAR text: RJNG 181524Z 10003KT 9999 FEW030 BKN170 26/23 Q1009 RMK 1CU030 5AC170 A2980
Conditions at: RJNG (GIFU (JASDF) , JP) observed 1524 UTC 18 August 2019
Temperature: 26.0°C (79°F)
Dewpoint: 23.0°C (73°F) [RH = 84%]
Pressure (altimeter): 29.79 inches Hg (1009.0 mb)
Winds: from the E (100 degrees) at 3 MPH (3 knots; 1.5 m/s)
Visibility: 6 or more miles (10+ km)
Ceiling: 17000 feet AGL
Clouds: few clouds at 3000 feet AGL
broken clouds at 17000 feet AGL
Weather: no significant weather observed at this time

METAR text: RJNG 181436Z 12002KT 9999 FEW030 SCT160 26/23 Q1008 RMK 1CU030 4AC160 A2979
Conditions at: RJNG (GIFU (JASDF) , JP) observed 1436 UTC 18 August 2019
Temperature: 26.0°C (79°F)
Dewpoint: 23.0°C (73°F) [RH = 84%]
Pressure (altimeter): 29.76 inches Hg (1008.0 mb)
Winds: from the ESE (120 degrees) at 2 MPH (2 knots; 1.0 m/s)
Visibility: 6 or more miles (10+ km)
Ceiling: at least 12,000 feet AGL
Clouds: few clouds at 3000 feet AGL
scattered clouds at 16000 feet AGL
Weather: no significant weather observed at this time

METAR text: RJNG 181226Z 11003KT 9999 FEW030 BKN100 28/23 Q1007 RMK 1CU030 5AC100 A2976
Conditions at: RJNG (GIFU (JASDF) , JP) observed 1226 UTC 18 August 2019
Temperature: 28.0°C (82°F)
Dewpoint: 23.0°C (73°F) [RH = 74%]
Pressure (altimeter): 29.73 inches Hg (1007.0 mb)
Winds: from the ESE (110 degrees) at 3 MPH (3 knots; 1.5 m/s)
Visibility: 6 or more miles (10+ km)
Ceiling: 10000 feet AGL
Clouds: few clouds at 3000 feet AGL
broken clouds at 10000 feet AGL
Weather: no significant weather observed at this time

METAR text: RJNG 180746Z 13009KT 9999 -SHRA SCT030 31/23 Q1005 RETS RMK 4CU030 A2970
Conditions at: RJNG (GIFU (JASDF) , JP) observed 0746 UTC 18 August 2019
Temperature: 31.0°C (88°F)
Dewpoint: 23.0°C (73°F) [RH = 63%]
Pressure (altimeter): 29.68 inches Hg (1005.0 mb)
Winds: from the SE (130 degrees) at 10 MPH (9 knots; 4.6 m/s)
Visibility: 6 or more miles (10+ km)
Ceiling: at least 12,000 feet AGL
Clouds: scattered clouds at 3000 feet AGL
Weather: -SHRA  (light rain showers)

METAR text: RJNG 180737Z 14008KT 100V170 9999 -TSRA BKN030 FEW030CB SCT040 31/23 Q1005 RMK 5CU030 1CB030 3SC040 A2970 VIS E-SE 5KM BR FBL TS E
Conditions at: RJNG (GIFU (JASDF) , JP) observed 0737 UTC 18 August 2019
Temperature: 31.0°C (88°F)
Dewpoint: 23.0°C (73°F) [RH = 63%]
Pressure (altimeter): 29.68 inches Hg (1005.0 mb)
Winds: from the SE (140 degrees) at 9 MPH (8 knots; 4.1 m/s)
Visibility: 6 or more miles (10+ km)
Ceiling: 3000 feet AGL
Clouds: broken clouds at 3000 feet AGL
few clouds at 3000 feet AGL
scattered clouds at 4000 feet AGL
Weather: -TSRA  (light rain associated with thunderstorm(s))

METAR text: RJNG 180727Z 13009KT 100V170 9999 TS BKN030 FEW030CB SCT040 31/24 Q1005 RMK 5CU030 2CB030 3SC040 A2970 FBL TS SE-S
Conditions at: RJNG (GIFU (JASDF) , JP) observed 0727 UTC 18 August 2019
Temperature: 31.0°C (88°F)
Dewpoint: 24.0°C (75°F) [RH = 66%]
Pressure (altimeter): 29.68 inches Hg (1005.0 mb)
Winds: from the SE (130 degrees) at 10 MPH (9 knots; 4.6 m/s)
Visibility: 6 or more miles (10+ km)
Ceiling: 3000 feet AGL
Clouds: broken clouds at 3000 feet AGL
few clouds at 3000 feet AGL
scattered clouds at 4000 feet AGL
Weather: TS  (thunderstorm)

METAR text: RJNG 180708Z 12009KT 9999 FEW030CB SCT040 34/24 Q1005 RETS RMK 2CB030 3SC040 A2970 CB SE-S
Conditions at: RJNG (GIFU (JASDF) , JP) observed 0708 UTC 18 August 2019
Temperature: 34.0°C (93°F)
Dewpoint: 24.0°C (75°F) [RH = 56%]
Pressure (altimeter): 29.68 inches Hg (1005.0 mb)
Winds: from the ESE (120 degrees) at 10 MPH (9 knots; 4.6 m/s)
Visibility: 6 or more miles (10+ km)
Ceiling: at least 12,000 feet AGL
Clouds: few clouds at 3000 feet AGL
scattered clouds at 4000 feet AGL
Weather: no significant weather observed at this time

METAR text: RJNG 180635Z 21005KT 140V270 9999 TS FEW030CB 35/23 Q1005 RMK 2CB030 A2969 FBL TS E-SE
Conditions at: RJNG (GIFU (JASDF) , JP) observed 0635 UTC 18 August 2019
Temperature: 35.0°C (95°F)
Dewpoint: 23.0°C (73°F) [RH = 50%]
Pressure (altimeter): 29.68 inches Hg (1005.0 mb)
Winds: from the SSW (210 degrees) at 6 MPH (5 knots; 2.6 m/s)
Visibility: 6 or more miles (10+ km)
Ceiling: at least 12,000 feet AGL
Clouds: few clouds at 3000 feet AGL
Weather: TS  (thunderstorm)